EW5523 Weather Reports


Display with metric or nautical units.
time (UTC)temp
F
wind
direction
speed
MPH
gust
MPH
rain 1hr
in
rain 24hr
in
rain mn
in
humidity
%
barometer
mb
20191114194600 28 174 1.0 7.0 0.00 0.00 0.00 92 1035.7
20191114193111 28 164 2.0 5.0 0.00 0.00 0.00 92 1036.0
20191114191606 28 182 3.0 6.0 0.00 0.00 0.00 92 1035.9
20191114190053 28 172 2.0 7.0 0.00 0.00 0.00 92 1036.0
20191114184533 28 173 2.0 6.0 0.00 0.00 0.00 92 1036.1
20191114183044 28 183 2.0 4.0 0.00 0.00 0.00 92 1036.0
20191114181540 28 164 1.0 6.0 0.00 0.00 0.00 91 1036.1
20191114180058 28 160 1.0 4.0 0.00 0.00 0.00 91 1036.2
20191114174621 27 167 2.0 6.0 0.00 0.00 0.00 91 1036.1
20191114173045 27 165 2.0 5.0 0.00 0.00 0.00 91 1036.3
20191114171621 27 166 1.0 4.0 0.00 0.00 0.00 90 1036.5
20191114170056 27 172 2.0 7.0 0.00 0.00 0.00 90 1036.5
20191114164533 27 170 1.0 5.0 0.00 0.00 0.00 90 1036.6
20191114163057 27 170 1.0 5.0 0.00 0.00 0.00 89 1036.9
20191114161608 26 160 1.0 6.0 0.00 0.00 0.00 89 1036.9
20191114160101 26 183 2.0 5.0 0.00 0.00 0.00 89 1036.5
20191114154546 26 165 3.0 7.0 0.00 0.00 0.00 89 1036.6
20191114153120 26 147 2.0 6.0 0.00 0.00 0.00 89 1036.6
20191114151622 25 166 1.0 6.0 0.00 0.00 0.00 89 1036.6
20191114150041 25 134 2.0 6.0 0.00 0.00 0.00 89 1036.7
20191114144536 25 136 4.0 8.0 0.00 0.00 0.00 89 1036.5
20191114143103 25 147 3.0 6.0 0.00 0.00 0.00 88 1036.9
20191114141548 25 114 3.0 9.0 0.00 0.00 0.00 88 1037.2
20191114140016 25 147 3.0 6.0 0.00 0.00 0.00 88 1037.5
20191114134552 25 153 2.0 7.0 0.00 0.00 0.00 88 1037.5
20191114133037 25 138 3.0 7.0 0.00 0.00 0.00 88 1037.3
20191114131546 25 173 1.0 5.0 0.00 0.00 0.00 88 1038.0
20191114130030 26 127 4.0 7.0 0.00 0.00 0.00 87 1037.9
20191114124511 26 123 3.0 6.0 0.00 0.00 0.00 88 1038.1
20191114123033 26 129 2.0 4.0 0.00 0.00 0.00 88 1038.2
20191114121528 26 70 1.0 3.0 0.00 0.00 0.00 88 1038.1
20191114120013 26 118 1.0 4.0 0.00 0.00 0.00 87 1037.9
20191114114502 26 135 3.0 5.0 0.00 0.00 0.00 88 1037.9
20191114113011 26 81 1.0 4.0 0.00 0.00 0.00 88 1037.8
20191114111634 26 124 3.0 7.0 0.00 0.00 0.00 87 1037.5
20191114110126 26 129 3.0 7.0 0.00 0.00 0.00 88 1037.2
20191114104745 26 112 1.0 8.0 0.00 0.00 0.00 88 1037.1
20191114103112 27 114 5.0 10.0 0.00 0.00 0.00 88 1036.7
20191114101732 27 139 3.0 9.0 0.00 0.00 0.00 88 1036.9
20191114100216 27 129 2.0 8.0 0.00 0.00 0.00 88 1037.2
20191114094710 27 118 4.0 7.0 0.00 0.01 0.00 88 1036.8
20191114093110 27 116 1.0 4.0 0.00 0.01 0.00 89 1036.9
20191114090143 27 81 3.0 5.0 0.00 0.01 0.00 89 1036.7
20191114084624 27 68 1.0 5.0 0.00 0.01 0.00 88 1036.7
20191114083112 27 74 3.0 6.0 0.00 0.01 0.00 88 1036.8
20191114081602 27 77 1.0 7.0 0.00 0.01 0.00 88 1036.8
20191114080107 27 79 2.0 6.0 0.00 0.01 0.00 88 1036.7
20191114074625 27 83 1.0 7.0 0.00 0.02 0.00 88 1036.3
20191114073117 27 126 2.0 8.0 0.00 0.02 0.00 88 1036.2
20191114071617 27 112 2.0 5.0 0.00 0.02 0.00 87 1036.2
20191114070140 27 129 2.0 5.0 0.00 0.02 0.00 88 1036.2
20191114064610 27 67 0.0 4.0 0.00 0.03 0.00 88 1035.9
20191114063049 27 62 2.0 6.0 0.00 0.03 0.00 88 1035.8
20191114061613 27 60 1.0 5.0 0.00 0.03 0.00 88 1035.7
20191114060110 27 69 2.0 6.0 0.00 0.03 0.00 87 1035.7
20191114054553 27 66 1.0 7.0 0.00 0.04 0.00 87 1035.7
20191114053141 27 58 0.0 6.0 0.00 0.04 0.00 87 1035.6
20191114051555 27 61 3.0 8.0 0.00 0.04 0.00 87 1035.5
20191114050107 27 86 4.0 8.0 0.00 0.04 0.00 86 1035.4
20191114044540 27 101 2.0 7.0 0.00 0.05 0.00 87 1035.3
20191114043031 28 89 3.0 9.0 0.00 0.05 0.00 89 1035.2
20191114041539 28 97 3.0 7.0 0.00 0.05 0.00 91 1034.9
20191114040026 29 106 2.0 6.0 0.00 0.08 0.00 92 1034.6
20191114034544 29 61 2.0 9.0 0.00 0.08 0.00 93 1034.4
20191114033017 29 90 5.0 9.0 0.00 0.08 0.00 92 1034.3
20191114031552 30 80 2.0 7.0 0.00 0.08 0.00 93 1034.0
20191114030010 30 26 0.0 3.0 0.00 0.11 0.00 93 1033.9
20191114024507 30 346 0.0 2.0 0.00 0.11 0.00 93 1033.7
20191114023004 30 335 0.0 3.0 0.00 0.11 0.00 93 1033.5
20191114021501 30 330 0.0 2.0 0.00 0.11 0.00 93 1033.4
20191114020138 30 328 0.0 2.0 0.00 0.11 0.00 92 1033.3
20191114014710 30 341 1.0 3.0 0.00 0.12 0.00 92 1033.2
20191114013223 30 327 0.0 3.0 0.00 0.12 0.00 92 1033.2
20191114011622 30 318 1.0 5.0 0.00 0.12 0.00 92 1033.2
20191114010154 30 316 1.0 4.0 0.00 0.12 0.00 92 1033.0
20191114004651 30 330 0.0 4.0 0.00 0.12 0.00 92 1032.8
20191114003139 30 339 1.0 4.0 0.00 0.12 0.00 92 1032.7
20191114001615 30 308 2.0 5.0 0.00 0.12 0.00 91 1032.5
20191114000132 30 334 1.0 5.0 0.00 0.12 0.00 91 1032.4
20191113234631 30 354 2.0 6.0 0.00 0.12 0.00 91 1032.3
20191113233204 30 345 2.0 7.0 0.00 0.12 0.00 91 1032.1
20191113231642 30 336 2.0 8.0 0.00 0.12 0.00 91 1032.1
20191113230146 30 319 4.0 7.0 0.00 0.12 0.00 90 1031.9
20191113224553 30 315 3.0 8.0 0.00 0.12 0.00 91 1031.8
20191113223112 30 333 2.0 8.0 0.00 0.12 0.00 90 1031.7
20191113221711 30 344 3.0 7.0 0.00 0.12 0.00 90 1031.4
20191113220104 30 336 3.0 7.0 0.00 0.12 0.00 90 1031.2
20191113214606 30 297 3.0 9.0 0.00 0.12 0.00 90 1031.2
20191113213205 30 305 4.0 11.0 0.00 0.12 0.00 90 1031.2
20191113211603 30 328 4.0 10.0 0.00 0.12 0.00 90 1030.9
20191113210128 30 297 3.0 9.0 0.00 0.12 0.00 90 1031.0
20191113204628 31 307 4.0 12.0 0.00 0.12 0.00 90 1030.7
20191113203100 31 261 4.0 9.0 0.00 0.12 0.00 91 1030.5
20191113201611 31 8 3.0 7.0 0.00 0.12 0.00 91 1030.4
20191113200113 31 305 3.0 6.0 0.00 0.12 0.00 91 1030.3